Time;durP1;ratioP1;P1;durP2;ratioP2;P2;SDS_P1;SDS_P2;PMS_P1;PMS_P2;Temp;Humidity;BMP_temperature;BMP_pressure;BME280_temperature;BME280_humidity;BME280_pressure;Samples;Min_cycle;Max_cycle;Signal;HPM_P1;HPM_P2
2022/01/14 00:01:46;;;;;;;;;;;5.70;99.90;;;;;;5059544;28;19923;-41
2022/01/14 00:04:12;;;;;;;;;;;5.70;99.90;;;;;;5071509;28;19921;-42
2022/01/14 00:06:38;;;;;;;;;;;5.70;99.90;;;;;;5077516;28;19956;-42
2022/01/14 00:09:09;;;;;;;;;;;5.70;99.90;;;;;;5073675;28;19913;-41
2022/01/14 00:11:36;;;;;;;;;;;5.80;99.90;;;;;;5073657;28;19963;-42
2022/01/14 00:16:31;;;;;;;;;;;5.80;99.90;;;;;;5079114;28;20007;-41
2022/01/14 00:18:59;;;;;;;;;;;5.80;99.90;;;;;;5076676;28;20256;-41
2022/01/14 00:21:29;;;;;;;;;;;5.70;99.90;;;;;;5075801;28;19916;-42
2022/01/14 00:24:06;;;;;;;;;;;5.80;99.90;;;;;;5058693;28;19913;-41
2022/01/14 00:32:02;;;;;;;;;;;5.80;99.90;;;;;;5076222;28;19930;-41
2022/01/14 00:34:28;;;;;;;;;;;5.80;99.90;;;;;;5075868;28;19908;-41
2022/01/14 00:36:54;;;;;;;;;;;5.80;99.90;;;;;;5076220;28;19939;-42
2022/01/14 00:39:19;;;;;;;;;;;5.80;99.90;;;;;;5075240;28;19920;-42
2022/01/14 00:41:45;;;;;;;;;;;5.70;99.90;;;;;;5078631;28;19968;-42
2022/01/14 00:44:12;;;;;;;;;;;5.80;99.90;;;;;;5073496;28;19916;-42
2022/01/14 00:46:38;;;;;;;;;;;5.70;99.90;;;;;;5061308;28;19908;-42
2022/01/14 00:49:04;;;;;;;;;;;5.70;99.90;;;;;;5074854;28;19971;-42
2022/01/14 00:51:29;;;;;;;;;;;5.80;99.90;;;;;;5072829;28;20253;-42
2022/01/14 00:53:55;;;;;;;;;;;5.70;99.90;;;;;;5077938;28;19913;-48
2022/01/14 00:56:30;;;;;;;;;;;5.70;99.90;;;;;;5075887;28;20012;-42
2022/01/14 00:59:14;;;;;;;;;;;5.80;99.90;;;;;;5056605;28;19920;-42
2022/01/14 01:04:44;;;;;;;;;;;5.80;99.90;;;;;;5068874;22;19951;-79
2022/01/14 01:07:10;;;;;;;;;;;5.80;99.90;;;;;;5023761;28;19909;-80
2022/01/14 01:09:37;;;;;;;;;;;5.70;99.90;;;;;;5028911;28;20270;-80
2022/01/14 01:14:51;;;;;;;;;;;5.70;99.90;;;;;;5027438;28;19916;-82
2022/01/14 01:17:17;;;;;;;;;;;5.80;99.90;;;;;;5031367;28;19973;-82
2022/01/14 01:19:43;;;;;;;;;;;5.80;99.90;;;;;;5027767;28;20345;-82
2022/01/14 01:22:09;;;;;;;;;;;5.80;99.90;;;;;;5028988;28;19913;-82
2022/01/14 01:24:35;;;;;;;;;;;5.80;99.90;;;;;;5025731;28;19927;-82
2022/01/14 01:27:07;;;;;;;;;;;5.80;99.90;;;;;;5025348;28;20233;-82
2022/01/14 01:32:07;;;;;;;;;;;5.80;99.90;;;;;;5025641;28;19996;-81
2022/01/14 01:34:33;;;;;;;;;;;5.80;99.90;;;;;;5027287;28;19905;-82
2022/01/14 01:37:00;;;;;;;;;;;5.80;99.90;;;;;;5029872;28;19921;-82
2022/01/14 01:39:27;;;;;;;;;;;5.80;99.90;;;;;;5029632;28;19905;-82
2022/01/14 01:41:54;;;;;;;;;;;5.80;99.90;;;;;;5031393;28;19924;-82
2022/01/14 01:44:21;;;;;;;;;;;5.80;99.90;;;;;;5026997;28;20391;-80
2022/01/14 01:46:47;;;;;;;;;;;5.80;99.90;;;;;;5028951;28;20366;-81
2022/01/14 01:49:14;;;;;;;;;;;5.80;99.90;;;;;;5028788;28;19944;-81
2022/01/14 01:51:41;;;;;;;;;;;5.80;99.90;;;;;;5031290;28;19905;-81
2022/01/14 01:54:06;;;;;;;;;;;5.80;99.90;;;;;;5031784;28;19931;-82
2022/01/14 01:56:32;;;;;;;;;;;5.80;99.90;;;;;;5032638;28;20007;-82
2022/01/14 01:58:57;;;;;;;;;;;5.90;99.90;;;;;;5032138;28;19928;-81
2022/01/14 02:01:24;;;;;;;;;;;5.80;99.90;;;;;;5026935;28;19913;-81
2022/01/14 02:03:49;;;;;;;;;;;5.80;99.90;;;;;;5028880;28;19912;-81
2022/01/14 02:06:15;;;;;;;;;;;5.90;99.90;;;;;;5029019;28;19924;-82
2022/01/14 02:08:41;;;;;;;;;;;5.90;99.90;;;;;;5031457;28;20368;-82
2022/01/14 02:11:06;;;;;;;;;;;5.90;99.90;;;;;;5012870;28;19924;-82
2022/01/14 02:13:32;;;;;;;;;;;5.90;99.90;;;;;;5030916;28;19905;-82
2022/01/14 02:23:53;;;;;;;;;;;5.80;99.90;;;;;;5031042;28;20046;-81
2022/01/14 02:26:19;;;;;;;;;;;5.90;99.90;;;;;;5030428;28;20039;-82
2022/01/14 02:28:48;;;;;;;;;;;5.90;99.90;;;;;;5031243;28;19905;-82
2022/01/14 02:31:14;;;;;;;;;;;5.90;99.90;;;;;;5031604;28;19924;-81
2022/01/14 02:33:39;;;;;;;;;;;5.80;99.90;;;;;;5030132;28;19921;-82
2022/01/14 02:36:05;;;;;;;;;;;5.80;99.90;;;;;;5010890;28;20264;-82
2022/01/14 02:38:31;;;;;;;;;;;5.90;99.90;;;;;;5032519;28;19917;-82
2022/01/14 02:40:58;;;;;;;;;;;5.90;99.90;;;;;;5029144;28;20444;-81
2022/01/14 02:43:25;;;;;;;;;;;5.80;99.90;;;;;;5032176;28;19909;-82
2022/01/14 02:45:53;;;;;;;;;;;5.80;99.90;;;;;;5031394;28;20255;-82
2022/01/14 02:48:19;;;;;;;;;;;5.90;99.90;;;;;;5030759;28;19954;-82
2022/01/14 02:50:57;;;;;;;;;;;5.90;99.90;;;;;;5028727;28;20026;-82
2022/01/14 02:53:56;;;;;;;;;;;5.90;99.90;;;;;;5027886;28;19968;-82
2022/01/14 02:56:11;;;;;;;;;;;5.80;99.90;;;;;;5031100;28;20000;-82
2022/01/14 02:58:38;;;;;;;;;;;5.90;99.90;;;;;;5031449;28;19905;-82
2022/01/14 03:01:05;;;;;;;;;;;5.80;99.90;;;;;;5030833;28;21139;-82
2022/01/14 03:03:31;;;;;;;;;;;5.80;99.90;;;;;;5030004;28;19956;-81
2022/01/14 03:05:57;;;;;;;;;;;5.80;99.90;;;;;;5029604;28;19952;-82
2022/01/14 03:08:22;;;;;;;;;;;5.80;99.90;;;;;;5031387;28;19928;-82
2022/01/14 03:10:52;;;;;;;;;;;5.80;99.90;;;;;;5028453;28;19913;-82
2022/01/14 03:13:17;;;;;;;;;;;5.80;99.90;;;;;;5029383;28;19948;-82
2022/01/14 03:15:43;;;;;;;;;;;5.80;99.90;;;;;;5031191;28;19959;-82
2022/01/14 03:18:10;;;;;;;;;;;5.80;99.90;;;;;;5029335;28;19917;-81
2022/01/14 03:20:46;;;;;;;;;;;5.80;99.90;;;;;;5027519;28;19925;-83
2022/01/14 03:23:13;;;;;;;;;;;5.80;99.90;;;;;;5030395;28;19974;-82
2022/01/14 03:25:48;;;;;;;;;;;5.70;99.90;;;;;;5030064;28;20403;-82
2022/01/14 03:28:21;;;;;;;;;;;5.70;99.90;;;;;;5025477;28;19916;-82
2022/01/14 03:30:47;;;;;;;;;;;5.70;99.90;;;;;;5026432;28;19936;-82
2022/01/14 03:33:12;;;;;;;;;;;5.70;99.90;;;;;;5031644;28;19916;-82
2022/01/14 03:35:38;;;;;;;;;;;5.70;99.90;;;;;;5029239;28;19954;-83
2022/01/14 03:38:03;;;;;;;;;;;5.70;99.90;;;;;;5030605;28;19909;-82
2022/01/14 03:40:29;;;;;;;;;;;5.70;99.90;;;;;;5028081;28;19909;-82
2022/01/14 03:42:54;;;;;;;;;;;5.70;99.90;;;;;;5031157;28;19932;-82
2022/01/14 03:45:20;;;;;;;;;;;5.70;99.90;;;;;;5030537;28;19924;-81
2022/01/14 03:47:45;;;;;;;;;;;5.70;99.90;;;;;;5029472;28;19919;-82
2022/01/14 03:50:11;;;;;;;;;;;5.70;99.90;;;;;;5028594;28;19912;-82
2022/01/14 03:52:37;;;;;;;;;;;5.70;99.90;;;;;;5031092;28;20260;-82
2022/01/14 03:55:02;;;;;;;;;;;5.70;99.90;;;;;;5030402;28;19979;-82
2022/01/14 03:57:28;;;;;;;;;;;5.70;99.90;;;;;;5044179;28;19955;-83
2022/01/14 03:59:53;;;;;;;;;;;5.70;99.90;;;;;;5010552;28;19909;-82
2022/01/14 04:02:19;;;;;;;;;;;5.70;99.90;;;;;;5030372;28;20390;-82
2022/01/14 04:04:44;;;;;;;;;;;5.70;99.90;;;;;;5030860;28;19917;-82
2022/01/14 04:07:10;;;;;;;;;;;5.70;99.90;;;;;;5032061;28;19969;-82
2022/01/14 04:09:37;;;;;;;;;;;5.70;99.90;;;;;;5026155;28;19955;-82
2022/01/14 04:12:08;;;;;;;;;;;5.60;99.90;;;;;;5029497;28;20558;-83
2022/01/14 04:17:03;;;;;;;;;;;5.70;99.90;;;;;;5030443;28;19909;-83
2022/01/14 04:19:29;;;;;;;;;;;5.70;99.90;;;;;;5027195;28;20368;-82
2022/01/14 04:21:55;;;;;;;;;;;5.70;99.90;;;;;;5028099;28;19917;-82
2022/01/14 04:24:20;;;;;;;;;;;5.60;99.90;;;;;;5028614;28;19917;-82
2022/01/14 04:26:46;;;;;;;;;;;5.70;99.90;;;;;;5029326;28;20245;-82
2022/01/14 04:29:11;;;;;;;;;;;5.60;99.90;;;;;;5030821;28;19904;-82
2022/01/14 04:31:37;;;;;;;;;;;5.60;99.90;;;;;;5028349;28;19917;-82
2022/01/14 04:34:03;;;;;;;;;;;5.60;99.90;;;;;;5030107;28;19975;-82
2022/01/14 04:36:28;;;;;;;;;;;5.70;99.90;;;;;;5029488;28;19975;-82
2022/01/14 04:38:54;;;;;;;;;;;5.60;99.90;;;;;;5028781;28;20000;-83
2022/01/14 04:41:19;;;;;;;;;;;5.60;99.90;;;;;;5026484;28;19944;-82
2022/01/14 04:43:45;;;;;;;;;;;5.70;99.90;;;;;;5026551;28;20398;-82
2022/01/14 04:48:36;;;;;;;;;;;5.60;99.90;;;;;;5027641;28;19909;-81
2022/01/14 04:51:03;;;;;;;;;;;5.60;99.90;;;;;;5030514;28;20391;-81
2022/01/14 04:53:29;;;;;;;;;;;5.60;99.90;;;;;;5028360;28;19912;-82
2022/01/14 04:55:55;;;;;;;;;;;5.60;99.90;;;;;;5026917;28;20276;-82
2022/01/14 04:58:21;;;;;;;;;;;5.60;99.90;;;;;;5028641;28;19936;-83
2022/01/14 05:00:47;;;;;;;;;;;5.60;99.90;;;;;;5026964;28;19940;-82
2022/01/14 05:03:13;;;;;;;;;;;5.60;99.90;;;;;;5030224;28;20049;-82
2022/01/14 05:05:42;;;;;;;;;;;5.60;99.90;;;;;;5027854;28;19971;-82
2022/01/14 05:08:17;;;;;;;;;;;5.60;99.90;;;;;;5027986;28;19909;-83
2022/01/14 05:13:17;;;;;;;;;;;5.60;99.90;;;;;;5027646;28;19909;-83
2022/01/14 05:15:43;;;;;;;;;;;5.60;99.90;;;;;;5028712;28;19920;-83
2022/01/14 05:18:09;;;;;;;;;;;5.60;99.90;;;;;;5026463;28;19909;-83
2022/01/14 05:20:34;;;;;;;;;;;5.60;99.90;;;;;;5027890;28;19909;-83
2022/01/14 05:22:59;;;;;;;;;;;5.60;99.90;;;;;;5033090;28;20248;-82
2022/01/14 05:25:25;;;;;;;;;;;5.50;99.90;;;;;;5032122;28;19921;-81
2022/01/14 05:27:50;;;;;;;;;;;5.50;99.90;;;;;;5031770;28;19935;-82
2022/01/14 05:30:16;;;;;;;;;;;5.50;99.90;;;;;;5034370;28;20304;-82
2022/01/14 05:32:46;;;;;;;;;;;5.60;99.90;;;;;;5032122;28;19943;-82
2022/01/14 05:35:13;;;;;;;;;;;5.50;99.90;;;;;;5029844;28;19991;-82
2022/01/14 05:37:38;;;;;;;;;;;5.50;99.90;;;;;;5033298;28;19917;-84
2022/01/14 05:40:04;;;;;;;;;;;5.60;99.90;;;;;;5010741;28;19916;-83
2022/01/14 05:42:33;;;;;;;;;;;5.50;99.90;;;;;;5028911;28;20288;-82
2022/01/14 05:44:59;;;;;;;;;;;5.50;99.90;;;;;;5025192;28;19909;-83
2022/01/14 05:47:25;;;;;;;;;;;5.50;99.90;;;;;;5025588;28;19994;-83
2022/01/14 05:49:51;;;;;;;;;;;5.50;99.90;;;;;;5031184;28;19948;-84
2022/01/14 05:52:17;;;;;;;;;;;5.50;99.90;;;;;;5032061;28;19959;-83
2022/01/14 05:54:43;;;;;;;;;;;5.50;99.90;;;;;;5010537;28;19909;-83
2022/01/14 05:57:08;;;;;;;;;;;5.40;99.90;;;;;;5029874;28;20589;-83
2022/01/14 05:59:34;;;;;;;;;;;5.40;99.90;;;;;;5011976;28;21124;-81
2022/01/14 06:01:59;;;;;;;;;;;5.40;99.90;;;;;;5031599;28;19924;-82
2022/01/14 06:04:25;;;;;;;;;;;5.40;99.90;;;;;;5013085;28;19918;-82
2022/01/14 06:06:51;;;;;;;;;;;5.40;99.90;;;;;;5031662;28;19909;-82
2022/01/14 06:09:17;;;;;;;;;;;5.40;99.90;;;;;;5035162;28;19921;-83
2022/01/14 06:11:42;;;;;;;;;;;5.30;99.90;;;;;;5030747;28;19927;-83
2022/01/14 06:14:08;;;;;;;;;;;5.30;99.90;;;;;;5034823;28;19921;-82
2022/01/14 06:16:33;;;;;;;;;;;5.40;99.90;;;;;;5018501;28;20249;-82
2022/01/14 06:18:59;;;;;;;;;;;5.40;99.90;;;;;;5018054;28;20301;-82
2022/01/14 06:21:25;;;;;;;;;;;5.40;99.90;;;;;;5035424;28;19960;-82
2022/01/14 06:23:50;;;;;;;;;;;5.40;99.90;;;;;;5034713;28;20236;-82
2022/01/14 06:26:16;;;;;;;;;;;5.40;99.90;;;;;;5018362;28;19905;-82
2022/01/14 06:28:43;;;;;;;;;;;5.40;99.90;;;;;;5035150;28;19952;-82
2022/01/14 06:31:09;;;;;;;;;;;5.40;99.90;;;;;;5017672;28;19971;-82
2022/01/14 06:33:34;;;;;;;;;;;5.40;99.90;;;;;;5034334;28;19996;-82
2022/01/14 06:36:00;;;;;;;;;;;5.40;99.90;;;;;;5034432;28;19992;-81
2022/01/14 06:38:25;;;;;;;;;;;5.40;99.90;;;;;;5034263;28;19901;-82
2022/01/14 06:40:51;;;;;;;;;;;5.40;99.90;;;;;;5033846;28;19913;-84
2022/01/14 06:43:17;;;;;;;;;;;5.40;99.90;;;;;;5017218;28;19938;-81
2022/01/14 06:45:43;;;;;;;;;;;5.40;99.90;;;;;;5035693;28;20333;-82
2022/01/14 06:48:09;;;;;;;;;;;5.40;99.90;;;;;;5035233;28;19904;-79
2022/01/14 06:50:35;;;;;;;;;;;5.40;99.90;;;;;;5017236;28;19971;-83
2022/01/14 06:53:00;;;;;;;;;;;5.40;99.90;;;;;;5033837;28;20344;-81
2022/01/14 06:55:26;;;;;;;;;;;5.40;99.90;;;;;;5035084;28;19905;-81
2022/01/14 06:57:51;;;;;;;;;;;5.40;99.90;;;;;;5017231;28;19911;-82
2022/01/14 07:00:18;;;;;;;;;;;5.40;99.90;;;;;;5033727;28;19900;-81
2022/01/14 07:02:43;;;;;;;;;;;5.40;99.90;;;;;;5035046;28;19909;-82
2022/01/14 07:05:09;;;;;;;;;;;5.40;99.90;;;;;;5033385;28;20356;-82
2022/01/14 07:07:35;;;;;;;;;;;5.40;99.90;;;;;;5035230;28;19901;-77
2022/01/14 07:10:01;;;;;;;;;;;5.40;99.90;;;;;;5035254;28;19901;-81
2022/01/14 07:12:28;;;;;;;;;;;5.40;99.90;;;;;;5034023;28;19912;-80
2022/01/14 07:14:54;;;;;;;;;;;5.40;99.90;;;;;;5035022;28;20059;-80
2022/01/14 07:17:20;;;;;;;;;;;5.40;99.90;;;;;;5035135;28;19941;-83
2022/01/14 07:19:47;;;;;;;;;;;5.40;99.90;;;;;;5032925;28;19901;-81
2022/01/14 07:22:13;;;;;;;;;;;5.40;99.90;;;;;;5033891;28;19916;-80
2022/01/14 07:24:38;;;;;;;;;;;5.40;99.90;;;;;;5034092;28;19905;-81
2022/01/14 07:27:04;;;;;;;;;;;5.40;99.90;;;;;;5035196;28;19905;-80
2022/01/14 07:29:29;;;;;;;;;;;5.50;99.90;;;;;;5035013;28;20390;-80
2022/01/14 07:31:55;;;;;;;;;;;5.50;99.90;;;;;;5034798;28;19901;-80
2022/01/14 07:34:20;;;;;;;;;;;5.50;99.90;;;;;;5033449;28;19912;-80
2022/01/14 07:36:46;;;;;;;;;;;5.50;99.90;;;;;;5033887;28;20325;-80
2022/01/14 07:39:11;;;;;;;;;;;5.50;99.90;;;;;;5033242;28;19901;-80
2022/01/14 07:41:37;;;;;;;;;;;5.50;99.90;;;;;;5033217;28;19920;-81
2022/01/14 07:44:03;;;;;;;;;;;5.50;99.90;;;;;;5034456;28;19905;-80
2022/01/14 07:46:29;;;;;;;;;;;5.50;99.90;;;;;;5033805;28;19901;-80
2022/01/14 07:48:55;;;;;;;;;;;5.50;99.90;;;;;;5033865;28;20058;-81
2022/01/14 07:51:20;;;;;;;;;;;5.50;99.90;;;;;;5033658;28;19904;-80
2022/01/14 07:53:46;;;;;;;;;;;5.50;99.90;;;;;;5034763;28;19905;-80
2022/01/14 07:56:13;;;;;;;;;;;5.50;99.90;;;;;;5033300;28;19955;-80
2022/01/14 07:58:39;;;;;;;;;;;5.60;99.90;;;;;;5033935;28;19912;-80
2022/01/14 08:01:04;;;;;;;;;;;5.60;99.90;;;;;;5034131;28;19916;-80
2022/01/14 08:03:30;;;;;;;;;;;5.60;99.90;;;;;;5033971;28;19987;-80
2022/01/14 08:05:57;;;;;;;;;;;5.60;99.90;;;;;;5033958;28;20400;-81
2022/01/14 08:08:23;;;;;;;;;;;5.60;99.90;;;;;;5032601;28;19908;-81
2022/01/14 08:10:49;;;;;;;;;;;5.60;99.90;;;;;;5032563;28;19901;-81
2022/01/14 08:13:17;;;;;;;;;;;5.70;99.90;;;;;;5033319;28;19987;-81
2022/01/14 08:15:42;;;;;;;;;;;5.70;99.90;;;;;;5033740;28;20298;-82
2022/01/14 08:18:09;;;;;;;;;;;5.70;99.90;;;;;;5033070;28;19909;-81
2022/01/14 08:20:34;;;;;;;;;;;5.70;99.90;;;;;;5033174;28;19908;-81
2022/01/14 08:23:00;;;;;;;;;;;5.80;99.90;;;;;;5031704;28;19901;-81
2022/01/14 08:25:26;;;;;;;;;;;5.70;99.90;;;;;;5033337;28;19908;-81
2022/01/14 08:27:52;;;;;;;;;;;5.80;99.90;;;;;;5015312;28;19908;-78
2022/01/14 08:30:17;;;;;;;;;;;5.70;99.90;;;;;;5031670;28;19927;-82
2022/01/14 08:32:43;;;;;;;;;;;5.80;99.90;;;;;;5033268;28;19912;-82
2022/01/14 08:35:09;;;;;;;;;;;5.80;99.90;;;;;;5031811;28;19912;-82
2022/01/14 08:37:36;;;;;;;;;;;5.80;99.90;;;;;;5032994;28;19905;-81
2022/01/14 08:40:01;;;;;;;;;;;5.80;99.90;;;;;;5032701;28;20336;-82
2022/01/14 08:42:27;;;;;;;;;;;5.80;99.90;;;;;;5014972;28;19913;-82
2022/01/14 08:44:52;;;;;;;;;;;5.90;99.90;;;;;;5033434;28;19909;-82
2022/01/14 08:47:18;;;;;;;;;;;5.90;99.90;;;;;;5032143;28;19909;-82
2022/01/14 08:49:43;;;;;;;;;;;5.90;99.90;;;;;;5031295;28;19901;-82
2022/01/14 08:52:10;;;;;;;;;;;5.90;99.90;;;;;;5031979;28;19901;-82
2022/01/14 08:54:36;;;;;;;;;;;5.90;99.90;;;;;;5034323;28;19967;-82
2022/01/14 08:57:04;;;;;;;;;;;6.00;99.90;;;;;;5035445;28;19901;-83
2022/01/14 08:59:30;;;;;;;;;;;6.00;99.90;;;;;;5035370;28;19934;-83
2022/01/14 09:01:56;;;;;;;;;;;6.00;99.90;;;;;;5036614;28;19913;-82
2022/01/14 09:04:22;;;;;;;;;;;6.10;99.90;;;;;;5036109;28;19955;-81
2022/01/14 09:06:47;;;;;;;;;;;6.10;99.90;;;;;;5034934;28;20362;-84
2022/01/14 09:09:13;;;;;;;;;;;6.10;99.90;;;;;;5018589;28;19912;-82
2022/01/14 09:11:42;;;;;;;;;;;6.20;99.90;;;;;;5034810;28;20355;-81
2022/01/14 09:14:15;;;;;;;;;;;6.30;99.90;;;;;;5034978;28;19990;-84
2022/01/14 09:16:41;;;;;;;;;;;6.30;99.90;;;;;;5035946;28;19973;-81
2022/01/14 09:19:07;;;;;;;;;;;6.30;99.90;;;;;;5018668;28;20261;-81
2022/01/14 09:21:32;;;;;;;;;;;6.30;99.90;;;;;;5036050;28;19917;-81
2022/01/14 09:24:04;;;;;;;;;;;6.40;99.90;;;;;;5018124;28;19912;-81
2022/01/14 09:26:34;;;;;;;;;;;6.40;99.90;;;;;;5035759;28;20248;-83
2022/01/14 09:29:01;;;;;;;;;;;6.40;99.90;;;;;;5036033;28;20310;-87
2022/01/14 09:31:26;;;;;;;;;;;6.40;99.90;;;;;;5034720;28;19911;-82
2022/01/14 09:33:52;;;;;;;;;;;6.50;99.90;;;;;;5034789;28;19988;-84
2022/01/14 09:36:17;;;;;;;;;;;6.50;99.90;;;;;;5035416;28;19911;-82
2022/01/14 09:38:43;;;;;;;;;;;6.60;99.90;;;;;;5035850;28;20329;-82
2022/01/14 09:41:09;;;;;;;;;;;6.60;99.90;;;;;;5034784;28;19954;-82
2022/01/14 09:43:39;;;;;;;;;;;6.70;99.90;;;;;;5035988;28;20325;-82
2022/01/14 09:46:05;;;;;;;;;;;6.70;99.90;;;;;;5034759;28;20218;-82
2022/01/14 09:48:32;;;;;;;;;;;6.70;99.90;;;;;;5035014;28;19905;-83
2022/01/14 09:50:58;;;;;;;;;;;6.80;99.90;;;;;;5035353;28;19924;-82
2022/01/14 09:53:30;;;;;;;;;;;6.80;99.90;;;;;;5017673;28;19905;-83
2022/01/14 09:55:56;;;;;;;;;;;6.80;99.90;;;;;;5035671;28;19901;-83
2022/01/14 09:58:23;;;;;;;;;;;6.90;99.90;;;;;;5033714;28;19947;-80
2022/01/14 10:00:48;;;;;;;;;;;6.90;99.90;;;;;;5033679;28;19920;-81
2022/01/14 10:03:18;;;;;;;;;;;7.00;99.90;;;;;;5035533;28;19901;-85
2022/01/14 10:05:47;;;;;;;;;;;7.00;99.90;;;;;;5032719;28;20020;-84
2022/01/14 10:08:16;;;;;;;;;;;7.00;99.90;;;;;;5033215;28;19923;-82
2022/01/14 10:10:46;;;;;;;;;;;7.10;99.90;;;;;;5035481;28;19987;-83
2022/01/14 10:13:19;;;;;;;;;;;7.10;99.90;;;;;;5034349;28;20365;-82
2022/01/14 10:15:46;;;;;;;;;;;7.10;99.90;;;;;;5034283;28;19923;-82
2022/01/14 10:18:13;;;;;;;;;;;7.20;99.90;;;;;;5034024;28;19939;-82
2022/01/14 10:20:38;;;;;;;;;;;7.30;99.90;;;;;;5033799;28;19909;-83
2022/01/14 10:23:04;;;;;;;;;;;7.30;99.90;;;;;;5035925;28;19908;-83
2022/01/14 10:25:29;;;;;;;;;;;7.40;99.90;;;;;;5034630;28;19905;-84
2022/01/14 10:27:55;;;;;;;;;;;7.40;99.90;;;;;;5034803;28;19901;-83
2022/01/14 10:30:28;;;;;;;;;;;7.40;99.90;;;;;;5034656;28;19901;-83
2022/01/14 10:32:55;;;;;;;;;;;7.40;99.90;;;;;;5033811;28;20260;-83
2022/01/14 10:35:22;;;;;;;;;;;7.40;99.90;;;;;;5034301;28;19908;-83
2022/01/14 10:37:47;;;;;;;;;;;7.50;99.90;;;;;;5033486;28;20003;-83
2022/01/14 10:40:15;;;;;;;;;;;7.50;99.90;;;;;;5033796;28;19936;-83
2022/01/14 10:42:41;;;;;;;;;;;7.50;99.90;;;;;;5033655;28;19913;-83
2022/01/14 10:45:27;;;;;;;;;;;7.50;99.90;;;;;;5034134;28;19908;-83
2022/01/14 10:48:04;;;;;;;;;;;7.60;99.90;;;;;;5033852;28;19948;-84
2022/01/14 10:50:29;;;;;;;;;;;7.60;99.90;;;;;;5033786;28;20299;-83
2022/01/14 10:52:55;;;;;;;;;;;7.60;99.90;;;;;;5033620;28;19944;-83
2022/01/14 10:55:28;;;;;;;;;;;7.60;99.90;;;;;;5034695;28;19943;-83
2022/01/14 10:57:53;;;;;;;;;;;7.70;99.90;;;;;;5033531;28;19971;-83
2022/01/14 11:00:20;;;;;;;;;;;7.70;99.90;;;;;;5016827;28;19905;-83
2022/01/14 11:02:48;;;;;;;;;;;7.70;99.90;;;;;;5033855;28;19955;-83
2022/01/14 11:05:17;;;;;;;;;;;7.70;99.90;;;;;;5034540;28;19933;-83
2022/01/14 11:07:45;;;;;;;;;;;7.80;99.90;;;;;;5032624;28;19905;-83
2022/01/14 11:10:16;;;;;;;;;;;7.80;99.90;;;;;;5033102;28;19964;-83
2022/01/14 11:12:43;;;;;;;;;;;7.70;99.90;;;;;;5033512;28;19973;-83
2022/01/14 11:15:09;;;;;;;;;;;7.80;99.90;;;;;;5033875;28;20256;-83
2022/01/14 11:17:39;;;;;;;;;;;7.70;99.90;;;;;;5016580;28;20409;-83
2022/01/14 11:20:07;;;;;;;;;;;7.70;99.90;;;;;;5033353;28;20393;-83
2022/01/14 11:25:19;;;;;;;;;;;7.70;99.90;;;;;;5034794;28;19908;-83
2022/01/14 11:27:56;;;;;;;;;;;7.70;99.90;;;;;;5033856;28;19901;-83
2022/01/14 11:30:30;;;;;;;;;;;7.60;99.90;;;;;;5033229;28;19908;-80
2022/01/14 11:32:57;;;;;;;;;;;7.70;99.90;;;;;;5034860;28;19908;-83
2022/01/14 11:35:23;;;;;;;;;;;7.60;99.90;;;;;;5032588;28;19901;-82
2022/01/14 11:37:49;;;;;;;;;;;7.60;99.90;;;;;;5032782;28;19905;-83
2022/01/14 11:40:15;;;;;;;;;;;7.60;99.90;;;;;;5032201;28;19911;-82
2022/01/14 11:42:41;;;;;;;;;;;7.60;99.90;;;;;;5032412;28;20379;-82
2022/01/14 11:45:07;;;;;;;;;;;7.60;99.90;;;;;;5031608;28;19967;-83
2022/01/14 11:47:39;;;;;;;;;;;7.60;99.90;;;;;;5032010;28;19901;-82
2022/01/14 11:50:05;;;;;;;;;;;7.60;99.90;;;;;;5032976;28;19901;-83
2022/01/14 11:52:35;;;;;;;;;;;7.60;99.90;;;;;;5016670;28;19909;-83
2022/01/14 11:55:01;;;;;;;;;;;7.60;99.90;;;;;;5034566;28;19943;-84
2022/01/14 11:57:46;;;;;;;;;;;7.60;99.90;;;;;;5034423;28;19902;-82
2022/01/14 12:00:27;;;;;;;;;;;7.60;99.90;;;;;;5037345;28;19964;-82
2022/01/14 12:02:56;;;;;;;;;;;7.70;99.90;;;;;;5037148;28;20003;-81
2022/01/14 12:05:23;;;;;;;;;;;7.60;99.90;;;;;;5037326;28;19962;-86
2022/01/14 12:08:04;;;;;;;;;;;7.60;99.90;;;;;;5035858;28;19916;-87
2022/01/14 12:10:35;;;;;;;;;;;7.60;99.90;;;;;;5037411;28;19905;-89
2022/01/14 12:13:26;;;;;;;;;;;;;;;;;;;;;
2022/01/14 12:16:18;;;;;;;;;;;7.60;99.90;;;;;;5045270;28;19964;-92
2022/01/14 12:19:23;;;;;;;;;;;;;;;;;;;;;
2022/01/14 12:25:09;;;;;;;;;;;7.70;99.90;;;;;;5015668;28;19912;-91
2022/01/14 12:31:01;;;;;;;;;;;7.70;99.90;;;;;;5031475;28;19905;-89
2022/01/14 12:36:52;;;;;;;;;;;7.70;99.90;;;;;;5026323;28;20375;-89
2022/01/14 12:39:39;;;;;;;;;;;7.70;99.90;;;;;;5031678;28;19905;-89
2022/01/14 12:42:12;;;;;;;;;;;7.70;99.90;;;;;;5033055;28;19964;-89
2022/01/14 12:45:21;;;;;;;;;;;;;;;;;;;;;
2022/01/14 12:48:38;;;;;;;;;;;7.70;99.90;;;;;;5034232;28;19908;-89
2022/01/14 12:57:39;;;;;;;;;;;7.70;99.90;;;;;;5022159;28;19995;-90
2022/01/14 13:02:58;;;;;;;;;;;7.70;99.90;;;;;;5026479;28;19952;-89
2022/01/14 13:05:54;;;;;;;;;;;;;;;;;;;;;
2022/01/14 13:15:26;;;;;;;;;;;;;;;;;;;;;
2022/01/14 13:18:24;;;;;;;;;;;;;;;;;;;;;
2022/01/14 13:21:25;;;;;;;;;;;7.60;99.90;;;;;;4972711;28;19909;-92
2022/01/14 13:23:58;;;;;;;;;;;7.60;99.90;;;;;;5031652;28;19921;-92
2022/01/14 13:35:45;;;;;;;;;;;7.60;99.90;;;;;;5034285;28;19967;-91
2022/01/14 13:45:03;;;;;;;;;;;7.60;99.90;;;;;;5036945;28;19908;-89
2022/01/14 13:56:57;;;;;;;;;;;;;;;;;;;;;
2022/01/14 14:02:59;;;;;;;;;;;7.40;99.90;;;;;;5023771;28;19913;-89
2022/01/14 14:05:52;;;;;;;;;;;;;;;;;;;;;
2022/01/14 14:18:12;;;;;;;;;;;7.30;99.90;;;;;;4955804;29;19910;-85
2022/01/14 14:20:38;;;;;;;;;;;7.30;99.90;;;;;;4971911;28;19906;-86
2022/01/14 14:23:22;;;;;;;;;;;7.30;99.90;;;;;;4985107;28;19901;-86
2022/01/14 14:25:51;;;;;;;;;;;7.30;99.90;;;;;;5035412;28;19907;-86
2022/01/14 14:28:25;;;;;;;;;;;7.30;99.90;;;;;;5033804;28;19982;-86
2022/01/14 14:31:04;;;;;;;;;;;7.30;99.90;;;;;;5035827;28;19952;-86
2022/01/14 14:33:49;;;;;;;;;;;7.30;99.90;;;;;;5033854;28;19908;-87
2022/01/14 14:36:40;;;;;;;;;;;7.30;99.90;;;;;;5033907;28;19963;-87
2022/01/14 14:39:06;;;;;;;;;;;7.30;99.90;;;;;;5034166;28;20007;-85
2022/01/14 14:41:31;;;;;;;;;;;7.30;99.90;;;;;;5034229;28;19928;-83
2022/01/14 14:43:59;;;;;;;;;;;7.30;99.90;;;;;;5035322;28;19908;-87
2022/01/14 14:47:00;;;;;;;;;;;7.30;99.90;;;;;;5035530;28;19992;-93
2022/01/14 15:05:18;;;;;;;15.02;5.15;;;7.20;99.90;;;;;;5038604;27;20553;-51
2022/01/14 15:07:44;;;;;;;14.68;6.05;;;7.20;99.90;;;;;;5053098;28;20072;-48
2022/01/14 15:10:12;;;;;;;21.70;6.30;;;7.20;99.90;;;;;;5050083;28;20061;-50
2022/01/14 15:12:38;;;;;;;18.50;6.07;;;7.20;99.90;;;;;;5051686;28;20033;-47
2022/01/14 15:15:08;;;;;;;18.25;5.75;;;7.20;99.90;;;;;;5050185;28;20082;-47
2022/01/14 15:20:23;;;;;;;13.98;5.90;;;7.20;99.90;;;;;;5043909;28;20428;-46
2022/01/14 15:22:50;;;;;;;18.50;6.63;;;7.20;99.90;;;;;;5058711;28;20033;-48
2022/01/14 15:25:17;;;;;;;15.90;5.47;;;7.10;99.90;;;;;;5058945;28;20087;-48
2022/01/14 15:27:43;;;;;;;18.33;6.15;;;7.10;99.90;;;;;;5047475;28;20029;-48
2022/01/14 15:30:09;;;;;;;20.83;7.18;;;7.10;99.90;;;;;;5017761;28;20404;-50
2022/01/14 15:32:35;;;;;;;16.23;6.35;;;7.10;99.90;;;;;;5049515;28;20084;-47
2022/01/14 15:35:01;;;;;;;21.05;8.00;;;7.10;99.90;;;;;;5046409;28;95231;-48
2022/01/14 15:37:27;;;;;;;18.73;8.02;;;7.10;99.90;;;;;;5057116;28;20123;-51
2022/01/14 15:39:53;;;;;;;23.33;6.90;;;7.00;99.90;;;;;;5045758;28;20069;-50
2022/01/14 15:42:18;;;;;;;20.30;6.20;;;7.00;99.90;;;;;;5056662;28;20041;-46
2022/01/14 15:44:44;;;;;;;19.30;6.57;;;7.00;99.90;;;;;;5056588;28;20045;-49
2022/01/14 15:47:10;;;;;;;18.75;6.78;;;7.00;99.90;;;;;;5055396;28;20055;-48
2022/01/14 15:49:36;;;;;;;23.13;7.07;;;7.00;99.90;;;;;;5046728;28;20036;-49
2022/01/14 15:52:02;;;;;;;19.20;6.35;;;7.00;99.90;;;;;;5052943;28;20068;-50
2022/01/14 15:54:28;;;;;;;20.63;8.15;;;7.00;99.90;;;;;;5048586;28;20113;-50
2022/01/14 15:56:53;;;;;;;22.00;7.10;;;6.90;99.90;;;;;;5039880;28;20042;-47
2022/01/14 15:59:19;;;;;;;19.02;7.18;;;7.00;99.90;;;;;;5048258;28;20029;-47
2022/01/14 16:01:45;;;;;;;19.58;7.30;;;6.90;99.90;;;;;;5050764;28;20037;-51
2022/01/14 16:04:11;;;;;;;19.17;7.43;;;6.90;99.90;;;;;;5049609;28;20436;-49
2022/01/14 16:06:36;;;;;;;25.42;9.35;;;6.90;99.90;;;;;;5065206;28;20101;-49
2022/01/14 16:09:02;;;;;;;31.38;11.80;;;6.90;99.90;;;;;;5065540;28;20029;-48
2022/01/14 16:11:28;;;;;;;23.20;8.00;;;6.90;99.90;;;;;;5048159;28;20026;-47
2022/01/14 16:14:04;;;;;;;23.40;8.55;;;6.90;99.90;;;;;;5053647;28;20068;-50
2022/01/14 16:16:31;;;;;;;25.30;8.60;;;6.90;99.90;;;;;;5041884;28;20028;-48
2022/01/14 16:18:56;;;;;;;23.63;8.20;;;6.90;99.90;;;;;;5036079;28;20124;-52
2022/01/14 16:21:22;;;;;;;22.67;8.50;;;6.90;99.90;;;;;;5034289;28;20037;-50
2022/01/14 16:23:48;;;;;;;27.23;9.23;;;6.80;99.90;;;;;;5036404;28;20072;-49
2022/01/14 16:26:14;;;;;;;20.40;7.88;;;6.90;99.90;;;;;;5039274;28;20028;-52
2022/01/14 16:28:40;;;;;;;20.30;8.20;;;6.90;99.90;;;;;;5033150;28;20033;-51
2022/01/14 16:31:05;;;;;;;20.58;7.85;;;6.90;99.90;;;;;;5040279;28;20121;-49